ETH909 HAAB-GABS
Flight info
| Callsign | ETH909 |
|---|---|
| Flight time | N/A |
| Altitude | 38000 |
| Route | BRO3A BRO DCT KAFIA DCT IRAGA UB736 JOS UJ332 BDA UL683 TLE UA601 EBSUD A601 MINVO MINVO5D |
| Aircraft | B789/H-SDE1E2E3FGHIJ2J3J4J5M1RWXY/LB1D1 |
Departure
| Time | 2026-05-05 15:18 |
|---|---|
| Airport | Addis Ababa Bole International Airport (HAAB) |
Arrival
| Time | N/A |
|---|---|
| Airport | Modibo Keita International Airport (GABS) |
| Time | Latitude | Longitude | Altitude | Speed | Heading |
|---|---|---|---|---|---|
| 2026-05-05 14:25 | 8.98281 | 38.79780 | 7639 ft | 0 kts | 343° |
| 2026-05-05 15:04 | 8.98279 | 38.79781 | 7639 ft | 1 kts | 343° |
| 2026-05-05 15:04 | 8.98263 | 38.79785 | 7639 ft | 3 kts | 343° |
| 2026-05-05 15:05 | 8.98229 | 38.79796 | 7639 ft | 3 kts | 334° |
| 2026-05-05 15:05 | 8.98217 | 38.79805 | 7639 ft | 3 kts | 303° |
| 2026-05-05 15:05 | 8.98212 | 38.79817 | 7639 ft | 3 kts | 266° |
| 2026-05-05 15:06 | 8.98216 | 38.79836 | 7639 ft | 3 kts | 253° |
| 2026-05-05 15:06 | 8.98220 | 38.79848 | 7639 ft | 0 kts | 253° |
| 2026-05-05 15:06 | 8.98220 | 38.79849 | 7639 ft | 0 kts | 253° |
| 2026-05-05 15:08 | 8.98220 | 38.79848 | 7639 ft | 0 kts | 253° |
| 2026-05-05 15:09 | 8.98219 | 38.79845 | 7639 ft | 1 kts | 253° |
| 2026-05-05 15:09 | 8.98215 | 38.79833 | 7639 ft | 3 kts | 253° |
| 2026-05-05 15:10 | 8.98208 | 38.79809 | 7639 ft | 5 kts | 252° |
| 2026-05-05 15:10 | 8.98196 | 38.79772 | 7639 ft | 6 kts | 250° |
| 2026-05-05 15:10 | 8.98174 | 38.79733 | 7639 ft | 6 kts | 210° |
| 2026-05-05 15:10 | 8.98133 | 38.79740 | 7639 ft | 7 kts | 151° |
| 2026-05-05 15:11 | 8.98087 | 38.79763 | 7639 ft | 8 kts | 161° |
| 2026-05-05 15:11 | 8.98031 | 38.79782 | 7639 ft | 9 kts | 161° |
| 2026-05-05 15:11 | 8.97967 | 38.79804 | 7639 ft | 11 kts | 163° |
| 2026-05-05 15:11 | 8.97896 | 38.79822 | 7639 ft | 10 kts | 180° |
| 2026-05-05 15:12 | 8.97849 | 38.79773 | 7639 ft | 11 kts | 250° |
| 2026-05-05 15:12 | 8.97823 | 38.79690 | 7639 ft | 14 kts | 254° |
| 2026-05-05 15:12 | 8.97795 | 38.79591 | 7639 ft | 16 kts | 254° |
| 2026-05-05 15:12 | 8.97762 | 38.79474 | 7639 ft | 18 kts | 254° |
| 2026-05-05 15:13 | 8.97724 | 38.79342 | 7639 ft | 21 kts | 253° |
| 2026-05-05 15:13 | 8.97683 | 38.79195 | 7639 ft | 23 kts | 255° |
| 2026-05-05 15:13 | 8.97640 | 38.79036 | 7639 ft | 25 kts | 255° |
| 2026-05-05 15:13 | 8.97589 | 38.78869 | 7639 ft | 25 kts | 251° |
| 2026-05-05 15:14 | 8.97549 | 38.78748 | 7639 ft | 9 kts | 253° |
| 2026-05-05 15:14 | 8.97534 | 38.78696 | 7639 ft | 8 kts | 253° |
| 2026-05-05 15:14 | 8.97517 | 38.78636 | 7639 ft | 10 kts | 253° |
| 2026-05-05 15:14 | 8.97495 | 38.78563 | 7639 ft | 12 kts | 254° |
| 2026-05-05 15:15 | 8.97470 | 38.78473 | 7639 ft | 15 kts | 254° |
| 2026-05-05 15:15 | 8.97439 | 38.78366 | 7639 ft | 17 kts | 254° |
| 2026-05-05 15:15 | 8.97423 | 38.78314 | 7639 ft | 6 kts | 250° |
| 2026-05-05 15:15 | 8.97396 | 38.78281 | 7639 ft | 7 kts | 197° |
| 2026-05-05 15:16 | 8.97344 | 38.78287 | 7639 ft | 8 kts | 159° |
| 2026-05-05 15:16 | 8.97300 | 38.78320 | 7639 ft | 8 kts | 139° |
| 2026-05-05 15:16 | 8.97259 | 38.78363 | 7639 ft | 8 kts | 118° |
| 2026-05-05 15:16 | 8.97254 | 38.78414 | 7639 ft | 7 kts | 83° |
| 2026-05-05 15:17 | 8.97277 | 38.78503 | 7639 ft | 30 kts | 74° |
| 2026-05-05 15:17 | 8.97404 | 38.78948 | 7639 ft | 102 kts | 73° |
| 2026-05-05 15:17 | 8.97662 | 38.79841 | 7639 ft | 161 kts | 75° |
| 2026-05-05 15:17 | 8.98026 | 38.81054 | 7786 ft | 190 kts | 74° |
| 2026-05-05 15:18 | 8.98420 | 38.82365 | 8436 ft | 196 kts | 75° |
| 2026-05-05 15:18 | 8.98769 | 38.83668 | 9401 ft | 186 kts | 76° |
| 2026-05-05 15:18 | 8.99102 | 38.84937 | 10083 ft | 190 kts | 75° |
| 2026-05-05 15:18 | 8.99451 | 38.86267 | 10552 ft | 202 kts | 74° |
| 2026-05-05 15:19 | 8.99829 | 38.87691 | 10890 ft | 219 kts | 74° |
| 2026-05-05 15:19 | 9.00248 | 38.89241 | 11238 ft | 236 kts | 73° |
| 2026-05-05 15:19 | 9.00709 | 38.90825 | 11917 ft | 239 kts | 72° |
| 2026-05-05 15:19 | 9.01193 | 38.92477 | 12422 ft | 254 kts | 74° |
| 2026-05-05 15:20 | 9.01348 | 38.94325 | 12738 ft | 276 kts | 95° |
| 2026-05-05 15:20 | 9.00694 | 38.96191 | 13269 ft | 290 kts | 119° |
| 2026-05-05 15:20 | 8.99277 | 38.97668 | 13916 ft | 299 kts | 143° |
| 2026-05-05 15:20 | 8.97353 | 38.98511 | 14525 ft | 310 kts | 164° |
| 2026-05-05 15:21 | 8.95148 | 38.98598 | 14892 ft | 327 kts | 186° |
| 2026-05-05 15:21 | 8.92962 | 38.97850 | 15340 ft | 340 kts | 207° |
| 2026-05-05 15:21 | 8.91139 | 38.96293 | 15881 ft | 349 kts | 229° |
| 2026-05-05 15:21 | 8.89880 | 38.94152 | 16241 ft | 362 kts | 247° |
| 2026-05-05 15:22 | 8.89300 | 38.91680 | 16543 ft | 374 kts | 264° |
| 2026-05-05 15:22 | 8.89260 | 38.89004 | 16997 ft | 381 kts | 272° |
| 2026-05-05 15:22 | 8.89409 | 38.86341 | 17483 ft | 387 kts | 274° |
| 2026-05-05 15:22 | 8.89385 | 38.83613 | 18037 ft | 390 kts | 263° |
| 2026-05-05 15:23 | 8.88683 | 38.80951 | 18358 ft | 401 kts | 248° |
| 2026-05-05 15:23 | 8.87352 | 38.78426 | 18404 ft | 418 kts | 239° |
| 2026-05-05 15:23 | 8.85820 | 38.75852 | 18694 ft | 429 kts | 238° |
| 2026-05-05 15:23 | 8.84313 | 38.73260 | 19505 ft | 425 kts | 239° |
| 2026-05-05 15:24 | 8.82861 | 38.70664 | 20272 ft | 424 kts | 241° |
| 2026-05-05 15:24 | 8.81540 | 38.67991 | 20744 ft | 429 kts | 247° |
| 2026-05-05 15:24 | 8.80493 | 38.65182 | 21241 ft | 433 kts | 251° |
| 2026-05-05 15:24 | 8.79523 | 38.62253 | 21739 ft | 437 kts | 252° |
| 2026-05-05 15:25 | 8.78612 | 38.59316 | 22213 ft | 441 kts | 253° |
| 2026-05-05 15:25 | 8.77717 | 38.56330 | 22735 ft | 444 kts | 253° |
| 2026-05-05 15:25 | 8.76829 | 38.53326 | 23245 ft | 447 kts | 254° |
| 2026-05-05 15:25 | 8.75954 | 38.50348 | 23750 ft | 449 kts | 254° |
| 2026-05-05 15:26 | 8.75065 | 38.47315 | 24259 ft | 452 kts | 254° |
| 2026-05-05 15:26 | 8.74172 | 38.44271 | 24760 ft | 454 kts | 254° |
| 2026-05-05 15:26 | 8.73268 | 38.41195 | 25255 ft | 457 kts | 253° |
| 2026-05-05 15:26 | 8.72436 | 38.38096 | 25725 ft | 459 kts | 257° |
| 2026-05-05 15:27 | 8.71789 | 38.34927 | 26188 ft | 462 kts | 259° |
| 2026-05-05 15:27 | 8.71219 | 38.31715 | 26641 ft | 465 kts | 261° |
| 2026-05-05 15:27 | 8.70691 | 38.28471 | 27088 ft | 468 kts | 261° |
| 2026-05-05 15:27 | 8.70193 | 38.25261 | 27522 ft | 470 kts | 262° |
| 2026-05-05 15:28 | 8.69688 | 38.21943 | 27972 ft | 473 kts | 262° |
| 2026-05-05 15:28 | 8.69196 | 38.18696 | 28404 ft | 475 kts | 261° |
| 2026-05-05 15:28 | 8.68689 | 38.15390 | 28862 ft | 477 kts | 261° |
| 2026-05-05 15:28 | 8.68176 | 38.12073 | 29282 ft | 480 kts | 261° |
| 2026-05-05 15:29 | 8.67665 | 38.08741 | 29690 ft | 482 kts | 261° |
| 2026-05-05 15:29 | 8.67153 | 38.05384 | 30119 ft | 485 kts | 261° |
| 2026-05-05 15:29 | 8.66640 | 38.01998 | 30510 ft | 488 kts | 261° |
| 2026-05-05 15:29 | 8.66127 | 37.98605 | 30897 ft | 491 kts | 261° |
| 2026-05-05 15:30 | 8.65611 | 37.95181 | 31290 ft | 494 kts | 261° |
| 2026-05-05 15:30 | 8.65095 | 37.91747 | 31686 ft | 496 kts | 261° |
| 2026-05-05 15:30 | 8.64582 | 37.88334 | 32090 ft | 498 kts | 261° |
| 2026-05-05 15:30 | 8.64060 | 37.84877 | 32543 ft | 499 kts | 261° |
| 2026-05-05 15:31 | 8.63534 | 37.81399 | 33034 ft | 499 kts | 261° |
| 2026-05-05 15:31 | 8.63013 | 37.77962 | 33532 ft | 498 kts | 261° |
| 2026-05-05 15:31 | 8.62485 | 37.74484 | 34057 ft | 497 kts | 261° |
| 2026-05-05 15:31 | 8.61963 | 37.71052 | 34555 ft | 496 kts | 261° |
| 2026-05-05 15:32 | 8.61437 | 37.67601 | 35033 ft | 495 kts | 261° |
| 2026-05-05 15:32 | 8.60915 | 37.64170 | 35531 ft | 494 kts | 261° |
| 2026-05-05 15:32 | 8.60394 | 37.60741 | 35987 ft | 493 kts | 261° |
| 2026-05-05 15:32 | 8.59875 | 37.57330 | 36422 ft | 492 kts | 262° |
| 2026-05-05 15:33 | 8.59535 | 37.55094 | 36700 ft | 491 kts | 262° |
| 2026-05-05 15:33 | 8.58844 | 37.50556 | 37156 ft | 492 kts | 262° |
| 2026-05-05 15:33 | 8.58347 | 37.47295 | 37448 ft | 493 kts | 262° |
| 2026-05-05 15:33 | 8.57878 | 37.44223 | 37699 ft | 494 kts | 262° |
| 2026-05-05 15:34 | 8.57360 | 37.40829 | 38000 ft | 494 kts | 262° |
| 2026-05-05 15:34 | 8.56842 | 37.37429 | 38179 ft | 490 kts | 262° |
| 2026-05-05 15:34 | 8.56321 | 37.34013 | 38240 ft | 489 kts | 261° |
| 2026-05-05 15:35 | 8.55286 | 37.27251 | 38236 ft | 487 kts | 262° |
| 2026-05-05 15:35 | 8.54251 | 37.20489 | 38218 ft | 487 kts | 262° |
| 2026-05-05 15:36 | 8.53390 | 37.14868 | 38226 ft | 487 kts | 261° |
| 2026-05-05 15:36 | 8.52352 | 37.08113 | 38220 ft | 486 kts | 262° |
| 2026-05-05 15:37 | 8.51145 | 37.00265 | 38205 ft | 486 kts | 262° |
| 2026-05-05 15:37 | 8.50281 | 36.94660 | 38209 ft | 486 kts | 262° |
| 2026-05-05 15:38 | 8.49244 | 36.87914 | 38205 ft | 486 kts | 262° |
| 2026-05-05 15:38 | 8.48035 | 36.80077 | 38189 ft | 486 kts | 262° |
| 2026-05-05 15:39 | 8.46996 | 36.73347 | 38191 ft | 485 kts | 262° |
| 2026-05-05 15:39 | 8.46125 | 36.67694 | 38187 ft | 485 kts | 262° |
| 2026-05-05 15:40 | 8.45094 | 36.61030 | 38174 ft | 485 kts | 262° |
| 2026-05-05 15:40 | 8.43881 | 36.53210 | 38164 ft | 485 kts | 262° |
| 2026-05-05 15:41 | 8.43005 | 36.47563 | 38165 ft | 485 kts | 262° |
| 2026-05-05 15:41 | 8.41972 | 36.40899 | 38170 ft | 484 kts | 262° |
| 2026-05-05 15:42 | 8.40936 | 36.34221 | 38156 ft | 484 kts | 262° |
| 2026-05-05 15:42 | 8.39962 | 36.27957 | 38144 ft | 484 kts | 262° |
| 2026-05-05 15:43 | 8.38922 | 36.21304 | 38136 ft | 484 kts | 262° |
| 2026-05-05 15:43 | 8.37862 | 36.14520 | 38138 ft | 484 kts | 262° |
| 2026-05-05 15:44 | 8.36813 | 36.07802 | 38140 ft | 484 kts | 262° |
| 2026-05-05 15:44 | 8.35763 | 36.01086 | 38124 ft | 484 kts | 262° |
| 2026-05-05 15:45 | 8.34721 | 35.94424 | 38116 ft | 484 kts | 262° |
| 2026-05-05 15:45 | 8.33671 | 35.87719 | 38122 ft | 484 kts | 262° |